sensor_id;sensor_type;location;lat;lon;timestamp;pressure;altitude;pressure_sealevel;temperature;humidity
40948;BME280;49382;-25.924;28.194;2022-11-15T00:00:37;85531.26;;;17.90;43.59
40948;BME280;49382;-25.924;28.194;2022-11-15T00:03:03;85532.52;;;17.94;43.91
40948;BME280;49382;-25.924;28.194;2022-11-15T00:05:29;85530.43;;;17.80;43.92
40948;BME280;49382;-25.924;28.194;2022-11-15T00:07:56;85527.15;;;18.83;42.29
40948;BME280;49382;-25.924;28.194;2022-11-15T00:10:21;85530.45;;;19.42;41.49
40948;BME280;49382;-25.924;28.194;2022-11-15T00:12:47;85534.34;;;18.19;43.27
40948;BME280;49382;-25.924;28.194;2022-11-15T00:15:12;85528.66;;;18.27;43.20
40948;BME280;49382;-25.924;28.194;2022-11-15T00:17:39;85525.16;;;18.76;42.42
40948;BME280;49382;-25.924;28.194;2022-11-15T00:20:06;85524.78;;;19.02;42.03
40948;BME280;49382;-25.924;28.194;2022-11-15T00:22:32;85523.34;;;19.20;41.78
40948;BME280;49382;-25.924;28.194;2022-11-15T00:24:56;85527.95;;;18.24;43.32
40948;BME280;49382;-25.924;28.194;2022-11-15T00:27:21;85528.20;;;20.00;40.75
40948;BME280;49382;-25.924;28.194;2022-11-15T00:29:47;85532.38;;;19.94;40.82
40948;BME280;49382;-25.924;28.194;2022-11-15T00:32:13;85528.08;;;18.98;42.02
40948;BME280;49382;-25.924;28.194;2022-11-15T00:34:39;85530.84;;;19.08;41.65
40948;BME280;49382;-25.924;28.194;2022-11-15T00:37:06;85529.86;;;18.70;41.95
40948;BME280;49382;-25.924;28.194;2022-11-15T00:39:31;85528.86;;;19.56;41.25
40948;BME280;49382;-25.924;28.194;2022-11-15T00:41:56;85532.43;;;18.85;42.39
40948;BME280;49382;-25.924;28.194;2022-11-15T00:44:22;85528.73;;;18.59;42.82
40948;BME280;49382;-25.924;28.194;2022-11-15T00:46:47;85527.94;;;18.43;42.78
40948;BME280;49382;-25.924;28.194;2022-11-15T00:49:13;85528.19;;;18.57;42.79
40948;BME280;49382;-25.924;28.194;2022-11-15T00:51:39;85524.23;;;18.02;44.19
40948;BME280;49382;-25.924;28.194;2022-11-15T00:54:04;85530.50;;;18.67;42.56
40948;BME280;49382;-25.924;28.194;2022-11-15T00:56:30;85528.41;;;18.36;43.00
40948;BME280;49382;-25.924;28.194;2022-11-15T00:58:56;85529.87;;;18.37;42.91
40948;BME280;49382;-25.924;28.194;2022-11-15T01:01:21;85529.78;;;17.02;45.43
40948;BME280;49382;-25.924;28.194;2022-11-15T01:03:47;85533.21;;;18.57;43.18
40948;BME280;49382;-25.924;28.194;2022-11-15T01:06:13;85533.28;;;18.85;42.12
40948;BME280;49382;-25.924;28.194;2022-11-15T01:08:39;85534.63;;;18.67;42.24
40948;BME280;49382;-25.924;28.194;2022-11-15T01:11:07;85530.53;;;17.63;43.86
40948;BME280;49382;-25.924;28.194;2022-11-15T01:13:32;85530.42;;;18.14;43.32
40948;BME280;49382;-25.924;28.194;2022-11-15T01:15:56;85530.56;;;18.63;42.84
40948;BME280;49382;-25.924;28.194;2022-11-15T01:18:22;85533.76;;;18.00;43.45
40948;BME280;49382;-25.924;28.194;2022-11-15T01:20:48;85534.52;;;19.00;42.42
40948;BME280;49382;-25.924;28.194;2022-11-15T01:23:13;85534.22;;;18.37;43.37
40948;BME280;49382;-25.924;28.194;2022-11-15T01:25:39;85530.98;;;19.40;42.00
40948;BME280;49382;-25.924;28.194;2022-11-15T01:28:05;85532.53;;;19.64;41.59
40948;BME280;49382;-25.924;28.194;2022-11-15T01:30:31;85531.87;;;18.67;43.34
40948;BME280;49382;-25.924;28.194;2022-11-15T01:32:57;85525.64;;;18.98;42.57
40948;BME280;49382;-25.924;28.194;2022-11-15T01:35:22;85524.39;;;17.19;45.23
40948;BME280;49382;-25.924;28.194;2022-11-15T01:37:48;85520.08;;;17.28;45.52
40948;BME280;49382;-25.924;28.194;2022-11-15T01:40:14;85527.69;;;18.22;43.58
40948;BME280;49382;-25.924;28.194;2022-11-15T01:42:40;85525.83;;;18.20;44.19
40948;BME280;49382;-25.924;28.194;2022-11-15T01:45:14;85522.91;;;18.97;42.97
40948;BME280;49382;-25.924;28.194;2022-11-15T01:47:35;85526.10;;;18.98;42.38
40948;BME280;49382;-25.924;28.194;2022-11-15T01:50:00;85525.61;;;18.36;43.55
40948;BME280;49382;-25.924;28.194;2022-11-15T01:52:26;85524.16;;;18.28;44.20
40948;BME280;49382;-25.924;28.194;2022-11-15T01:54:53;85524.71;;;17.61;44.66
40948;BME280;49382;-25.924;28.194;2022-11-15T01:57:14;85524.11;;;17.35;45.14
40948;BME280;49382;-25.924;28.194;2022-11-15T01:59:42;85530.80;;;17.74;44.46
40948;BME280;49382;-25.924;28.194;2022-11-15T02:02:05;85529.60;;;18.69;43.10
40948;BME280;49382;-25.924;28.194;2022-11-15T02:04:33;85531.83;;;18.66;42.88
40948;BME280;49382;-25.924;28.194;2022-11-15T02:06:56;85529.49;;;19.20;42.89
40948;BME280;49382;-25.924;28.194;2022-11-15T02:09:22;85525.12;;;17.17;46.29
40948;BME280;49382;-25.924;28.194;2022-11-15T02:11:48;85527.38;;;18.00;44.96
40948;BME280;49382;-25.924;28.194;2022-11-15T02:14:14;85530.32;;;17.30;45.29
40948;BME280;49382;-25.924;28.194;2022-11-15T02:16:47;85532.38;;;18.86;42.76
40948;BME280;49382;-25.924;28.194;2022-11-15T02:19:25;85532.36;;;17.59;45.15
40948;BME280;49382;-25.924;28.194;2022-11-15T02:21:35;85538.98;;;18.91;43.13
40948;BME280;49382;-25.924;28.194;2022-11-15T02:28:55;85544.84;;;18.55;43.67
40948;BME280;49382;-25.924;28.194;2022-11-15T02:31:15;85541.23;;;17.49;44.92
40948;BME280;49382;-25.924;28.194;2022-11-15T02:33:42;85549.92;;;17.87;44.19
40948;BME280;49382;-25.924;28.194;2022-11-15T02:36:05;85545.07;;;17.21;45.27
40948;BME280;49382;-25.924;28.194;2022-11-15T02:38:32;85547.62;;;19.30;42.78
40948;BME280;49382;-25.924;28.194;2022-11-15T02:40:55;85550.82;;;18.75;43.24
40948;BME280;49382;-25.924;28.194;2022-11-15T02:43:21;85552.39;;;18.23;44.05
40948;BME280;49382;-25.924;28.194;2022-11-15T02:45:48;85550.53;;;16.99;45.67
40948;BME280;49382;-25.924;28.194;2022-11-15T02:48:09;85547.19;;;17.59;44.68
40948;BME280;49382;-25.924;28.194;2022-11-15T02:50:33;85553.08;;;18.48;44.31
40948;BME280;49382;-25.924;28.194;2022-11-15T02:52:58;85550.57;;;18.17;45.03
40948;BME280;49382;-25.924;28.194;2022-11-15T02:55:29;85556.72;;;18.48;43.73
40948;BME280;49382;-25.924;28.194;2022-11-15T02:57:55;85555.89;;;18.36;43.88
40948;BME280;49382;-25.924;28.194;2022-11-15T03:00:15;85556.59;;;18.47;43.69
40948;BME280;49382;-25.924;28.194;2022-11-15T03:02:51;85557.11;;;18.26;44.73
40948;BME280;49382;-25.924;28.194;2022-11-15T03:05:08;85559.30;;;18.55;43.80
40948;BME280;49382;-25.924;28.194;2022-11-15T03:07:32;85556.95;;;17.30;46.00
40948;BME280;49382;-25.924;28.194;2022-11-15T03:10:00;85562.75;;;18.54;44.34
40948;BME280;49382;-25.924;28.194;2022-11-15T03:12:26;85558.50;;;17.54;45.93
40948;BME280;49382;-25.924;28.194;2022-11-15T03:14:51;85562.15;;;18.47;44.41
40948;BME280;49382;-25.924;28.194;2022-11-15T03:17:15;85560.18;;;18.26;44.56
40948;BME280;49382;-25.924;28.194;2022-11-15T03:19:42;85558.29;;;18.76;44.32
40948;BME280;49382;-25.924;28.194;2022-11-15T03:22:06;85556.96;;;17.96;45.82
40948;BME280;49382;-25.924;28.194;2022-11-15T03:24:30;85565.43;;;18.65;44.74
40948;BME280;49382;-25.924;28.194;2022-11-15T03:26:54;85568.12;;;18.84;44.35
40948;BME280;49382;-25.924;28.194;2022-11-15T03:29:22;85569.17;;;18.39;45.58
40948;BME280;49382;-25.924;28.194;2022-11-15T03:31:47;85570.13;;;17.45;47.42
40948;BME280;49382;-25.924;28.194;2022-11-15T03:34:14;85573.64;;;17.74;46.70
40948;BME280;49382;-25.924;28.194;2022-11-15T03:36:34;85581.90;;;18.51;45.47
40948;BME280;49382;-25.924;28.194;2022-11-15T03:39:02;85585.21;;;18.84;44.72
40948;BME280;49382;-25.924;28.194;2022-11-15T03:41:31;85589.94;;;18.59;44.39
40948;BME280;49382;-25.924;28.194;2022-11-15T03:43:55;85588.18;;;18.18;45.35
40948;BME280;49382;-25.924;28.194;2022-11-15T03:46:17;85589.52;;;18.68;45.19
40948;BME280;49382;-25.924;28.194;2022-11-15T03:48:42;85589.13;;;17.94;46.13
40948;BME280;49382;-25.924;28.194;2022-11-15T03:51:06;85589.49;;;18.32;45.70
40948;BME280;49382;-25.924;28.194;2022-11-15T03:53:30;85594.51;;;18.93;45.06
40948;BME280;49382;-25.924;28.194;2022-11-15T03:55:56;85597.84;;;17.40;46.63
40948;BME280;49382;-25.924;28.194;2022-11-15T03:58:21;85604.04;;;19.04;44.51
40948;BME280;49382;-25.924;28.194;2022-11-15T04:00:47;85600.54;;;18.07;46.12
40948;BME280;49382;-25.924;28.194;2022-11-15T04:03:13;85606.34;;;18.80;44.36
40948;BME280;49382;-25.924;28.194;2022-11-15T04:05:38;85610.10;;;18.77;44.77
40948;BME280;49382;-25.924;28.194;2022-11-15T04:08:03;85610.29;;;19.24;44.23
40948;BME280;49382;-25.924;28.194;2022-11-15T04:10:29;85612.56;;;19.40;44.08
40948;BME280;49382;-25.924;28.194;2022-11-15T04:12:54;85612.62;;;18.42;44.91
40948;BME280;49382;-25.924;28.194;2022-11-15T04:15:22;85617.55;;;19.06;44.70
40948;BME280;49382;-25.924;28.194;2022-11-15T04:17:47;85618.23;;;18.49;44.80
40948;BME280;49382;-25.924;28.194;2022-11-15T04:20:15;85620.06;;;18.29;45.35
40948;BME280;49382;-25.924;28.194;2022-11-15T04:22:37;85622.32;;;18.58;45.43
40948;BME280;49382;-25.924;28.194;2022-11-15T04:25:04;85623.78;;;17.64;47.26
40948;BME280;49382;-25.924;28.194;2022-11-15T04:27:29;85625.00;;;18.69;45.29
40948;BME280;49382;-25.924;28.194;2022-11-15T04:29:56;85626.53;;;18.16;45.41
40948;BME280;49382;-25.924;28.194;2022-11-15T04:32:21;85628.84;;;18.39;45.66
40948;BME280;49382;-25.924;28.194;2022-11-15T04:34:46;85635.00;;;18.84;44.88
40948;BME280;49382;-25.924;28.194;2022-11-15T04:37:12;85638.17;;;19.16;44.47
40948;BME280;49382;-25.924;28.194;2022-11-15T04:39:38;85644.83;;;18.76;45.15
40948;BME280;49382;-25.924;28.194;2022-11-15T04:42:04;85644.31;;;19.08;44.21
40948;BME280;49382;-25.924;28.194;2022-11-15T04:44:30;85645.54;;;19.25;44.57
40948;BME280;49382;-25.924;28.194;2022-11-15T04:46:56;85643.13;;;17.94;45.84
40948;BME280;49382;-25.924;28.194;2022-11-15T04:49:22;85642.63;;;19.24;44.95
40948;BME280;49382;-25.924;28.194;2022-11-15T04:51:47;85642.72;;;19.43;43.92
40948;BME280;49382;-25.924;28.194;2022-11-15T04:54:13;85644.63;;;19.21;44.32
40948;BME280;49382;-25.924;28.194;2022-11-15T04:56:39;85649.24;;;19.77;44.30
40948;BME280;49382;-25.924;28.194;2022-11-15T04:59:05;85648.44;;;20.40;42.99
40948;BME280;49382;-25.924;28.194;2022-11-15T05:01:31;85648.94;;;20.33;43.18
40948;BME280;49382;-25.924;28.194;2022-11-15T05:03:57;85651.75;;;20.78;41.72
40948;BME280;49382;-25.924;28.194;2022-11-15T05:06:23;85653.68;;;20.24;42.08
40948;BME280;49382;-25.924;28.194;2022-11-15T05:08:48;85651.47;;;20.14;42.11
40948;BME280;49382;-25.924;28.194;2022-11-15T05:11:14;85653.95;;;20.24;41.57
40948;BME280;49382;-25.924;28.194;2022-11-15T05:13:40;85655.32;;;20.58;41.41
40948;BME280;49382;-25.924;28.194;2022-11-15T05:16:06;85656.52;;;20.67;41.41
40948;BME280;49382;-25.924;28.194;2022-11-15T05:18:31;85656.21;;;20.95;42.04
40948;BME280;49382;-25.924;28.194;2022-11-15T05:21:03;85658.69;;;21.16;41.95
40948;BME280;49382;-25.924;28.194;2022-11-15T05:23:23;85650.57;;;21.40;40.31
40948;BME280;49382;-25.924;28.194;2022-11-15T05:25:49;85652.10;;;21.63;40.94
40948;BME280;49382;-25.924;28.194;2022-11-15T05:28:14;85652.77;;;20.80;40.84
40948;BME280;49382;-25.924;28.194;2022-11-15T05:30:40;85651.21;;;20.19;40.75
40948;BME280;49382;-25.924;28.194;2022-11-15T05:33:08;85650.26;;;20.88;41.08
40948;BME280;49382;-25.924;28.194;2022-11-15T05:35:33;85650.50;;;20.69;41.29
40948;BME280;49382;-25.924;28.194;2022-11-15T05:37:57;85651.19;;;20.58;41.03
40948;BME280;49382;-25.924;28.194;2022-11-15T05:40:23;85651.78;;;21.14;40.29
40948;BME280;49382;-25.924;28.194;2022-11-15T05:42:49;85646.73;;;22.19;39.26
40948;BME280;49382;-25.924;28.194;2022-11-15T05:45:14;85645.24;;;22.24;39.26
40948;BME280;49382;-25.924;28.194;2022-11-15T05:47:40;85645.30;;;21.27;39.84
40948;BME280;49382;-25.924;28.194;2022-11-15T05:50:08;85642.03;;;21.71;38.47
40948;BME280;49382;-25.924;28.194;2022-11-15T05:52:34;85641.25;;;21.84;38.93
40948;BME280;49382;-25.924;28.194;2022-11-15T05:54:58;85644.64;;;22.05;39.22
40948;BME280;49382;-25.924;28.194;2022-11-15T05:57:24;85644.58;;;21.01;39.40
40948;BME280;49382;-25.924;28.194;2022-11-15T05:59:49;85640.36;;;21.70;39.58
40948;BME280;49382;-25.924;28.194;2022-11-15T06:02:15;85629.01;;;21.10;39.83
40948;BME280;49382;-25.924;28.194;2022-11-15T06:04:41;85631.64;;;21.94;38.94
40948;BME280;49382;-25.924;28.194;2022-11-15T06:07:08;85629.40;;;21.06;39.70
40948;BME280;49382;-25.924;28.194;2022-11-15T06:09:32;85629.73;;;21.36;40.45
40948;BME280;49382;-25.924;28.194;2022-11-15T06:11:58;85627.42;;;22.10;38.95
40948;BME280;49382;-25.924;28.194;2022-11-15T06:14:24;85629.07;;;21.85;40.28
40948;BME280;49382;-25.924;28.194;2022-11-15T06:16:49;85625.35;;;22.20;39.49
40948;BME280;49382;-25.924;28.194;2022-11-15T06:19:15;85623.11;;;22.86;38.27
40948;BME280;49382;-25.924;28.194;2022-11-15T06:21:41;85622.30;;;23.46;37.88
40948;BME280;49382;-25.924;28.194;2022-11-15T06:24:08;85622.79;;;22.63;37.49
40948;BME280;49382;-25.924;28.194;2022-11-15T06:26:32;85623.26;;;22.87;38.81
40948;BME280;49382;-25.924;28.194;2022-11-15T06:28:58;85621.43;;;23.25;37.92
40948;BME280;49382;-25.924;28.194;2022-11-15T06:31:24;85619.96;;;22.86;37.22
40948;BME280;49382;-25.924;28.194;2022-11-15T06:33:50;85614.15;;;23.03;37.90
40948;BME280;49382;-25.924;28.194;2022-11-15T06:36:16;85616.03;;;22.66;38.52
40948;BME280;49382;-25.924;28.194;2022-11-15T06:38:41;85614.00;;;23.20;37.99
40948;BME280;49382;-25.924;28.194;2022-11-15T06:41:09;85610.71;;;22.94;37.25
40948;BME280;49382;-25.924;28.194;2022-11-15T06:43:33;85611.56;;;22.60;39.64
40948;BME280;49382;-25.924;28.194;2022-11-15T06:45:59;85611.95;;;23.12;37.29
40948;BME280;49382;-25.924;28.194;2022-11-15T06:48:24;85614.05;;;22.42;37.24
40948;BME280;49382;-25.924;28.194;2022-11-15T06:50:51;85609.61;;;23.34;36.93
40948;BME280;49382;-25.924;28.194;2022-11-15T06:53:16;85610.97;;;22.88;38.20
40948;BME280;49382;-25.924;28.194;2022-11-15T06:55:41;85613.03;;;22.95;37.60
40948;BME280;49382;-25.924;28.194;2022-11-15T06:58:07;85611.96;;;23.10;40.76
40948;BME280;49382;-25.924;28.194;2022-11-15T07:00:33;85616.81;;;23.61;36.77
40948;BME280;49382;-25.924;28.194;2022-11-15T07:03:00;85615.02;;;23.37;39.15
40948;BME280;49382;-25.924;28.194;2022-11-15T07:05:24;85612.58;;;22.94;38.49
40948;BME280;49382;-25.924;28.194;2022-11-15T07:07:54;85611.93;;;24.11;36.81
40948;BME280;49382;-25.924;28.194;2022-11-15T07:10:16;85610.98;;;24.08;35.28
40948;BME280;49382;-25.924;28.194;2022-11-15T07:12:42;85614.72;;;24.17;36.64
40948;BME280;49382;-25.924;28.194;2022-11-15T07:15:08;85609.94;;;23.97;36.99
40948;BME280;49382;-25.924;28.194;2022-11-15T07:17:33;85613.16;;;24.82;36.66
40948;BME280;49382;-25.924;28.194;2022-11-15T07:19:59;85605.96;;;24.36;36.87
40948;BME280;49382;-25.924;28.194;2022-11-15T07:22:24;85604.42;;;24.02;36.44
40948;BME280;49382;-25.924;28.194;2022-11-15T07:24:50;85607.95;;;24.40;36.67
40948;BME280;49382;-25.924;28.194;2022-11-15T07:27:16;85609.74;;;24.37;36.00
40948;BME280;49382;-25.924;28.194;2022-11-15T07:29:42;85599.42;;;23.82;36.28
40948;BME280;49382;-25.924;28.194;2022-11-15T07:32:08;85601.54;;;25.39;36.22
40948;BME280;49382;-25.924;28.194;2022-11-15T07:34:33;85598.40;;;25.15;36.04
40948;BME280;49382;-25.924;28.194;2022-11-15T07:36:59;85592.31;;;24.59;35.95
40948;BME280;49382;-25.924;28.194;2022-11-15T07:39:25;85595.70;;;25.30;36.09
40948;BME280;49382;-25.924;28.194;2022-11-15T07:41:51;85590.46;;;25.40;35.03
40948;BME280;49382;-25.924;28.194;2022-11-15T07:44:16;85582.57;;;24.86;34.76
40948;BME280;49382;-25.924;28.194;2022-11-15T07:46:42;85576.13;;;24.31;35.39
40948;BME280;49382;-25.924;28.194;2022-11-15T07:49:08;85581.33;;;24.57;35.48
40948;BME280;49382;-25.924;28.194;2022-11-15T07:51:34;85579.30;;;25.74;34.70
40948;BME280;49382;-25.924;28.194;2022-11-15T07:53:59;85578.17;;;25.18;35.29
40948;BME280;49382;-25.924;28.194;2022-11-15T07:56:25;85575.20;;;26.09;36.07
40948;BME280;49382;-25.924;28.194;2022-11-15T07:58:50;85569.73;;;26.15;34.64
40948;BME280;49382;-25.924;28.194;2022-11-15T08:01:16;85563.85;;;26.55;33.63
40948;BME280;49382;-25.924;28.194;2022-11-15T08:03:41;85564.97;;;25.95;34.19
40948;BME280;49382;-25.924;28.194;2022-11-15T08:06:07;85564.35;;;25.48;35.27
40948;BME280;49382;-25.924;28.194;2022-11-15T08:08:33;85562.84;;;25.09;35.60
40948;BME280;49382;-25.924;28.194;2022-11-15T08:10:59;85560.19;;;25.53;34.76
40948;BME280;49382;-25.924;28.194;2022-11-15T08:13:24;85554.95;;;26.65;34.49
40948;BME280;49382;-25.924;28.194;2022-11-15T08:15:50;85550.25;;;25.05;34.13
40948;BME280;49382;-25.924;28.194;2022-11-15T08:18:17;85544.54;;;26.16;33.93
40948;BME280;49382;-25.924;28.194;2022-11-15T08:20:42;85543.64;;;25.73;33.77
40948;BME280;49382;-25.924;28.194;2022-11-15T08:23:09;85543.36;;;25.48;35.79
40948;BME280;49382;-25.924;28.194;2022-11-15T08:25:34;85541.23;;;25.50;34.36
40948;BME280;49382;-25.924;28.194;2022-11-15T08:28:00;85535.90;;;26.00;34.22
40948;BME280;49382;-25.924;28.194;2022-11-15T08:30:25;85533.10;;;26.22;33.85
40948;BME280;49382;-25.924;28.194;2022-11-15T08:32:51;85539.44;;;25.30;34.96
40948;BME280;49382;-25.924;28.194;2022-11-15T08:35:17;85539.70;;;25.45;35.18
40948;BME280;49382;-25.924;28.194;2022-11-15T08:37:42;85533.01;;;24.61;36.41
40948;BME280;49382;-25.924;28.194;2022-11-15T08:40:08;85526.59;;;25.90;34.08
40948;BME280;49382;-25.924;28.194;2022-11-15T08:42:33;85521.42;;;26.14;34.55
40948;BME280;49382;-25.924;28.194;2022-11-15T08:44:59;85513.57;;;25.91;35.14
40948;BME280;49382;-25.924;28.194;2022-11-15T08:47:25;85509.32;;;25.60;36.77
40948;BME280;49382;-25.924;28.194;2022-11-15T08:49:51;85510.43;;;26.03;37.66
40948;BME280;49382;-25.924;28.194;2022-11-15T08:52:16;85509.71;;;26.21;35.77
40948;BME280;49382;-25.924;28.194;2022-11-15T08:54:42;85503.61;;;26.36;35.43
40948;BME280;49382;-25.924;28.194;2022-11-15T08:57:08;85500.11;;;26.50;34.31
40948;BME280;49382;-25.924;28.194;2022-11-15T08:59:33;85499.69;;;25.96;37.59
40948;BME280;49382;-25.924;28.194;2022-11-15T09:01:59;85499.18;;;25.15;37.12
40948;BME280;49382;-25.924;28.194;2022-11-15T09:04:25;85493.25;;;25.49;37.39
40948;BME280;49382;-25.924;28.194;2022-11-15T09:06:51;85490.02;;;25.85;35.54
40948;BME280;49382;-25.924;28.194;2022-11-15T09:09:16;85484.06;;;25.65;34.43
40948;BME280;49382;-25.924;28.194;2022-11-15T09:11:42;85483.39;;;26.22;34.53
40948;BME280;49382;-25.924;28.194;2022-11-15T09:14:10;85477.24;;;26.11;34.68
40948;BME280;49382;-25.924;28.194;2022-11-15T09:16:34;85471.50;;;26.27;34.45
40948;BME280;49382;-25.924;28.194;2022-11-15T09:18:59;85460.61;;;26.38;38.01
40948;BME280;49382;-25.924;28.194;2022-11-15T09:21:27;85460.76;;;24.86;35.88
40948;BME280;49382;-25.924;28.194;2022-11-15T09:23:51;85451.47;;;25.57;34.43
40948;BME280;49382;-25.924;28.194;2022-11-15T09:26:17;85448.26;;;25.79;35.60
40948;BME280;49382;-25.924;28.194;2022-11-15T09:28:42;85442.50;;;25.47;34.44
40948;BME280;49382;-25.924;28.194;2022-11-15T09:31:09;85438.09;;;25.97;36.53
40948;BME280;49382;-25.924;28.194;2022-11-15T09:33:34;85433.47;;;26.47;35.36
40948;BME280;49382;-25.924;28.194;2022-11-15T09:36:01;85439.77;;;26.14;37.18
40948;BME280;49382;-25.924;28.194;2022-11-15T09:38:25;85436.02;;;25.93;33.48
40948;BME280;49382;-25.924;28.194;2022-11-15T09:40:57;85428.68;;;24.92;33.45
40948;BME280;49382;-25.924;28.194;2022-11-15T09:43:26;85427.05;;;25.59;36.27
40948;BME280;49382;-25.924;28.194;2022-11-15T09:45:49;85421.76;;;26.44;34.93
40948;BME280;49382;-25.924;28.194;2022-11-15T09:48:25;85423.83;;;25.79;36.38
40948;BME280;49382;-25.924;28.194;2022-11-15T09:50:39;85415.99;;;26.11;36.57
40948;BME280;49382;-25.924;28.194;2022-11-15T09:52:59;85415.82;;;26.27;35.35
40948;BME280;49382;-25.924;28.194;2022-11-15T09:55:34;85414.67;;;26.11;34.38
40948;BME280;49382;-25.924;28.194;2022-11-15T09:57:55;85411.06;;;26.47;36.45
40948;BME280;49382;-25.924;28.194;2022-11-15T10:00:19;85408.34;;;26.27;35.84
40948;BME280;49382;-25.924;28.194;2022-11-15T10:02:55;85398.55;;;25.95;35.24
40948;BME280;49382;-25.924;28.194;2022-11-15T10:05:11;85395.44;;;25.61;35.20
40948;BME280;49382;-25.924;28.194;2022-11-15T10:07:40;85395.15;;;25.99;33.39
40948;BME280;49382;-25.924;28.194;2022-11-15T10:10:04;85391.28;;;25.87;34.17
40948;BME280;49382;-25.924;28.194;2022-11-15T10:12:26;85387.21;;;26.16;34.52
40948;BME280;49382;-25.924;28.194;2022-11-15T10:14:57;85381.94;;;26.15;35.52
40948;BME280;49382;-25.924;28.194;2022-11-15T10:17:29;85377.86;;;26.02;34.34
40948;BME280;49382;-25.924;28.194;2022-11-15T10:19:52;85375.28;;;26.67;33.71
40948;BME280;49382;-25.924;28.194;2022-11-15T10:22:18;85378.53;;;26.04;33.27
40948;BME280;49382;-25.924;28.194;2022-11-15T10:24:40;85370.81;;;26.21;33.91
40948;BME280;49382;-25.924;28.194;2022-11-15T10:27:00;85365.70;;;26.14;35.24
40948;BME280;49382;-25.924;28.194;2022-11-15T10:29:25;85365.45;;;26.92;34.78
40948;BME280;49382;-25.924;28.194;2022-11-15T10:31:51;85369.34;;;26.90;34.22
40948;BME280;49382;-25.924;28.194;2022-11-15T10:34:20;85358.75;;;26.94;31.93
40948;BME280;49382;-25.924;28.194;2022-11-15T10:36:45;85355.20;;;26.60;33.66
40948;BME280;49382;-25.924;28.194;2022-11-15T10:39:12;85354.18;;;25.99;33.56
40948;BME280;49382;-25.924;28.194;2022-11-15T10:41:38;85357.23;;;26.76;33.51
40948;BME280;49382;-25.924;28.194;2022-11-15T10:44:16;85344.45;;;25.82;33.60
40948;BME280;49382;-25.924;28.194;2022-11-15T10:46:26;85343.58;;;26.76;33.48
40948;BME280;49382;-25.924;28.194;2022-11-15T10:48:52;85346.30;;;27.06;32.90
40948;BME280;49382;-25.924;28.194;2022-11-15T10:51:22;85341.24;;;26.23;33.68
40948;BME280;49382;-25.924;28.194;2022-11-15T10:53:45;85341.87;;;26.67;32.15
40948;BME280;49382;-25.924;28.194;2022-11-15T10:56:12;85338.15;;;26.44;32.30
40948;BME280;49382;-25.924;28.194;2022-11-15T10:58:37;85337.31;;;26.81;32.47
40948;BME280;49382;-25.924;28.194;2022-11-15T11:01:11;85332.70;;;26.17;31.93
40948;BME280;49382;-25.924;28.194;2022-11-15T11:03:31;85329.93;;;26.89;32.76
40948;BME280;49382;-25.924;28.194;2022-11-15T11:08:23;85324.88;;;26.63;32.02
40948;BME280;49382;-25.924;28.194;2022-11-15T11:10:54;85317.68;;;25.92;34.70
40948;BME280;49382;-25.924;28.194;2022-11-15T11:13:14;85311.63;;;25.79;33.37
40948;BME280;49382;-25.924;28.194;2022-11-15T11:15:35;85312.39;;;26.73;33.04
40948;BME280;49382;-25.924;28.194;2022-11-15T11:18:05;85312.17;;;26.27;33.05
40948;BME280;49382;-25.924;28.194;2022-11-15T11:20:32;85307.81;;;26.61;31.94
40948;BME280;49382;-25.924;28.194;2022-11-15T11:23:02;85304.56;;;26.18;33.27
40948;BME280;49382;-25.924;28.194;2022-11-15T11:25:25;85300.49;;;26.15;33.65
40948;BME280;49382;-25.924;28.194;2022-11-15T11:27:54;85299.24;;;25.92;32.91
40948;BME280;49382;-25.924;28.194;2022-11-15T11:30:13;85297.03;;;26.97;32.09
40948;BME280;49382;-25.924;28.194;2022-11-15T11:32:44;85295.09;;;26.78;31.32
40948;BME280;49382;-25.924;28.194;2022-11-15T11:35:05;85292.04;;;27.08;31.51
40948;BME280;49382;-25.924;28.194;2022-11-15T11:37:32;85291.11;;;26.93;32.05
40948;BME280;49382;-25.924;28.194;2022-11-15T11:40:05;85286.90;;;26.89;32.03
40948;BME280;49382;-25.924;28.194;2022-11-15T11:42:26;85286.44;;;26.93;32.56
40948;BME280;49382;-25.924;28.194;2022-11-15T11:44:51;85277.79;;;26.73;31.32
40948;BME280;49382;-25.924;28.194;2022-11-15T11:47:12;85278.19;;;27.63;31.47
40948;BME280;49382;-25.924;28.194;2022-11-15T11:49:42;85273.90;;;27.13;31.59
40948;BME280;49382;-25.924;28.194;2022-11-15T11:52:05;85271.21;;;27.22;32.27
40948;BME280;49382;-25.924;28.194;2022-11-15T11:54:32;85267.06;;;26.93;32.61
40948;BME280;49382;-25.924;28.194;2022-11-15T11:56:53;85264.83;;;27.23;31.47
40948;BME280;49382;-25.924;28.194;2022-11-15T11:59:23;85261.07;;;26.32;32.27
40948;BME280;49382;-25.924;28.194;2022-11-15T12:01:44;85261.07;;;27.00;31.61
40948;BME280;49382;-25.924;28.194;2022-11-15T12:04:14;85254.34;;;27.15;29.14
40948;BME280;49382;-25.924;28.194;2022-11-15T12:06:38;85254.62;;;26.66;30.02
40948;BME280;49382;-25.924;28.194;2022-11-15T12:09:06;85253.13;;;26.50;30.78
40948;BME280;49382;-25.924;28.194;2022-11-15T12:11:32;85254.55;;;27.15;30.26
40948;BME280;49382;-25.924;28.194;2022-11-15T12:13:58;85243.02;;;26.29;30.59
40948;BME280;49382;-25.924;28.194;2022-11-15T12:16:20;85238.88;;;26.48;30.56
40948;BME280;49382;-25.924;28.194;2022-11-15T12:18:53;85237.15;;;26.26;32.46
40948;BME280;49382;-25.924;28.194;2022-11-15T12:21:16;85244.26;;;27.05;31.49
40948;BME280;49382;-25.924;28.194;2022-11-15T12:23:41;85238.48;;;26.61;31.77
40948;BME280;49382;-25.924;28.194;2022-11-15T12:26:03;85239.07;;;27.01;31.81
40948;BME280;49382;-25.924;28.194;2022-11-15T12:28:34;85233.93;;;26.80;30.71
40948;BME280;49382;-25.924;28.194;2022-11-15T12:30:56;85230.19;;;27.17;31.12
40948;BME280;49382;-25.924;28.194;2022-11-15T12:35:44;85224.65;;;27.01;30.36
40948;BME280;49382;-25.924;28.194;2022-11-15T12:38:11;85220.84;;;27.03;30.76
40948;BME280;49382;-25.924;28.194;2022-11-15T12:40:37;85221.72;;;27.12;30.02